sensor_id;sensor_type;location;lat;lon;timestamp;P1;durP1;ratioP1;P2;durP2;ratioP2
48026;SDS011;50714;49.208;5.364;2023-02-18T00:04:40;5.10;;;4.40;;
48026;SDS011;50714;49.208;5.364;2023-02-18T00:14:40;6.05;;;4.57;;
48026;SDS011;50714;49.208;5.364;2023-02-18T00:24:40;4.40;;;3.92;;
48026;SDS011;50714;49.208;5.364;2023-02-18T00:34:41;4.88;;;4.10;;
48026;SDS011;50714;49.208;5.364;2023-02-18T00:44:41;4.50;;;3.55;;
48026;SDS011;50714;49.208;5.364;2023-02-18T00:54:42;5.40;;;3.67;;
48026;SDS011;50714;49.208;5.364;2023-02-18T01:04:42;4.38;;;3.03;;
48026;SDS011;50714;49.208;5.364;2023-02-18T01:14:42;4.25;;;3.10;;
48026;SDS011;50714;49.208;5.364;2023-02-18T01:24:43;3.80;;;3.15;;
48026;SDS011;50714;49.208;5.364;2023-02-18T01:34:43;4.25;;;3.63;;
48026;SDS011;50714;49.208;5.364;2023-02-18T01:44:44;4.18;;;3.25;;
48026;SDS011;50714;49.208;5.364;2023-02-18T01:54:51;4.15;;;3.22;;
48026;SDS011;50714;49.208;5.364;2023-02-18T02:04:54;3.20;;;2.70;;
48026;SDS011;50714;49.208;5.364;2023-02-18T02:35:37;4.35;;;3.15;;
48026;SDS011;50714;49.208;5.364;2023-02-18T02:56:18;4.90;;;4.03;;
48026;SDS011;50714;49.208;5.364;2023-02-18T03:26:57;4.60;;;4.00;;
48026;SDS011;50714;49.208;5.364;2023-02-18T03:37:03;5.38;;;4.50;;
48026;SDS011;50714;49.208;5.364;2023-02-18T03:47:05;4.95;;;4.32;;
48026;SDS011;50714;49.208;5.364;2023-02-18T03:57:05;5.57;;;4.63;;
48026;SDS011;50714;49.208;5.364;2023-02-18T04:07:05;5.82;;;5.20;;
48026;SDS011;50714;49.208;5.364;2023-02-18T04:17:06;5.22;;;4.72;;
48026;SDS011;50714;49.208;5.364;2023-02-18T04:27:06;6.40;;;5.72;;
48026;SDS011;50714;49.208;5.364;2023-02-18T04:37:06;7.63;;;6.80;;
48026;SDS011;50714;49.208;5.364;2023-02-18T04:47:07;8.60;;;7.70;;
48026;SDS011;50714;49.208;5.364;2023-02-18T04:57:07;7.77;;;6.97;;
48026;SDS011;50714;49.208;5.364;2023-02-18T05:07:08;7.40;;;6.60;;
48026;SDS011;50714;49.208;5.364;2023-02-18T05:17:08;7.88;;;7.07;;
48026;SDS011;50714;49.208;5.364;2023-02-18T05:27:08;7.45;;;6.75;;
48026;SDS011;50714;49.208;5.364;2023-02-18T05:37:09;7.90;;;7.10;;
48026;SDS011;50714;49.208;5.364;2023-02-18T05:47:10;8.77;;;7.88;;
48026;SDS011;50714;49.208;5.364;2023-02-18T05:57:12;10.02;;;9.02;;
48026;SDS011;50714;49.208;5.364;2023-02-18T06:07:14;11.18;;;10.00;;
48026;SDS011;50714;49.208;5.364;2023-02-18T06:17:14;9.10;;;8.20;;
48026;SDS011;50714;49.208;5.364;2023-02-18T06:27:15;9.45;;;8.55;;
48026;SDS011;50714;49.208;5.364;2023-02-18T06:37:15;8.60;;;7.68;;
48026;SDS011;50714;49.208;5.364;2023-02-18T06:47:16;9.35;;;8.40;;
48026;SDS011;50714;49.208;5.364;2023-02-18T06:57:16;9.77;;;8.88;;
48026;SDS011;50714;49.208;5.364;2023-02-18T07:07:16;8.82;;;7.90;;
48026;SDS011;50714;49.208;5.364;2023-02-18T07:17:17;8.57;;;7.78;;
48026;SDS011;50714;49.208;5.364;2023-02-18T07:27:18;8.02;;;7.15;;
48026;SDS011;50714;49.208;5.364;2023-02-18T07:37:19;7.63;;;6.82;;
48026;SDS011;50714;49.208;5.364;2023-02-18T07:47:20;7.90;;;7.15;;
48026;SDS011;50714;49.208;5.364;2023-02-18T07:57:20;7.82;;;7.03;;
48026;SDS011;50714;49.208;5.364;2023-02-18T08:07:20;13.93;;;10.27;;
48026;SDS011;50714;49.208;5.364;2023-02-18T08:17:22;14.43;;;10.57;;
48026;SDS011;50714;49.208;5.364;2023-02-18T08:27:22;14.20;;;10.30;;
48026;SDS011;50714;49.208;5.364;2023-02-18T08:37:23;19.17;;;13.05;;
48026;SDS011;50714;49.208;5.364;2023-02-18T08:47:24;14.63;;;10.77;;
48026;SDS011;50714;49.208;5.364;2023-02-18T08:57:26;11.07;;;7.57;;
48026;SDS011;50714;49.208;5.364;2023-02-18T09:07:27;9.95;;;6.82;;
48026;SDS011;50714;49.208;5.364;2023-02-18T09:17:27;8.48;;;6.15;;
48026;SDS011;50714;49.208;5.364;2023-02-18T09:27:28;4.25;;;3.72;;
48026;SDS011;50714;49.208;5.364;2023-02-18T09:37:28;3.80;;;2.90;;
48026;SDS011;50714;49.208;5.364;2023-02-18T09:47:30;2.35;;;1.90;;
48026;SDS011;50714;49.208;5.364;2023-02-18T09:57:52;2.53;;;1.42;;
48026;SDS011;50714;49.208;5.364;2023-02-18T10:08:00;3.90;;;1.30;;
48026;SDS011;50714;49.208;5.364;2023-02-18T10:18:27;1.23;;;0.82;;
48026;SDS011;50714;49.208;5.364;2023-02-18T10:28:29;1.20;;;1.00;;
48026;SDS011;50714;49.208;5.364;2023-02-18T10:59:11;2.42;;;1.40;;
48026;SDS011;50714;49.208;5.364;2023-02-18T11:09:27;2.80;;;1.30;;
48026;SDS011;50714;49.208;5.364;2023-02-18T11:19:39;1.42;;;1.33;;
48026;SDS011;50714;49.208;5.364;2023-02-18T11:29:39;3.50;;;2.17;;
48026;SDS011;50714;49.208;5.364;2023-02-18T11:39:43;1.90;;;1.30;;
48026;SDS011;50714;49.208;5.364;2023-02-18T11:50:03;2.20;;;1.52;;
48026;SDS011;50714;49.208;5.364;2023-02-18T12:00:09;3.22;;;1.67;;
48026;SDS011;50714;49.208;5.364;2023-02-18T12:10:21;2.10;;;1.40;;
48026;SDS011;50714;49.208;5.364;2023-02-18T12:30:39;1.52;;;1.27;;
48026;SDS011;50714;49.208;5.364;2023-02-18T13:01:56;3.58;;;2.50;;
48026;SDS011;50714;49.208;5.364;2023-02-18T13:12:10;3.53;;;2.20;;
48026;SDS011;50714;49.208;5.364;2023-02-18T13:22:19;2.53;;;1.97;;
48026;SDS011;50714;49.208;5.364;2023-02-18T13:32:30;2.70;;;2.13;;
48026;SDS011;50714;49.208;5.364;2023-02-18T13:42:50;3.85;;;2.67;;
48026;SDS011;50714;49.208;5.364;2023-02-18T14:03:28;2.67;;;2.20;;
48026;SDS011;50714;49.208;5.364;2023-02-18T14:44:27;4.32;;;3.25;;
48026;SDS011;50714;49.208;5.364;2023-02-18T14:54:31;3.92;;;3.10;;
48026;SDS011;50714;49.208;5.364;2023-02-18T15:04:32;2.50;;;2.30;;
48026;SDS011;50714;49.208;5.364;2023-02-18T15:14:33;3.60;;;2.35;;
48026;SDS011;50714;49.208;5.364;2023-02-18T15:24:37;2.75;;;2.30;;
48026;SDS011;50714;49.208;5.364;2023-02-18T15:34:38;3.83;;;2.83;;
48026;SDS011;50714;49.208;5.364;2023-02-18T15:44:42;2.55;;;2.05;;
48026;SDS011;50714;49.208;5.364;2023-02-18T15:54:46;4.18;;;2.53;;
48026;SDS011;50714;49.208;5.364;2023-02-18T16:05:11;2.88;;;2.22;;
48026;SDS011;50714;49.208;5.364;2023-02-18T16:15:14;3.45;;;2.15;;
48026;SDS011;50714;49.208;5.364;2023-02-18T16:25:22;3.90;;;2.30;;
48026;SDS011;50714;49.208;5.364;2023-02-18T16:35:26;5.70;;;3.53;;
48026;SDS011;50714;49.208;5.364;2023-02-18T16:45:33;6.40;;;4.40;;
48026;SDS011;50714;49.208;5.364;2023-02-18T16:55:39;7.07;;;4.93;;
48026;SDS011;50714;49.208;5.364;2023-02-18T17:05:39;3.08;;;2.60;;
48026;SDS011;50714;49.208;5.364;2023-02-18T17:15:40;3.15;;;2.70;;
48026;SDS011;50714;49.208;5.364;2023-02-18T17:25:42;3.08;;;2.10;;
48026;SDS011;50714;49.208;5.364;2023-02-18T17:35:43;4.15;;;2.05;;
48026;SDS011;50714;49.208;5.364;2023-02-18T17:45:47;2.63;;;2.08;;
48026;SDS011;50714;49.208;5.364;2023-02-18T17:55:49;3.30;;;2.47;;
48026;SDS011;50714;49.208;5.364;2023-02-18T18:05:50;3.17;;;2.03;;
48026;SDS011;50714;49.208;5.364;2023-02-18T18:15:53;3.35;;;1.85;;
48026;SDS011;50714;49.208;5.364;2023-02-18T18:25:55;3.40;;;2.30;;
48026;SDS011;50714;49.208;5.364;2023-02-18T18:35:58;3.67;;;2.30;;
48026;SDS011;50714;49.208;5.364;2023-02-18T18:46:00;6.28;;;4.53;;
48026;SDS011;50714;49.208;5.364;2023-02-18T18:56:01;4.00;;;3.25;;
48026;SDS011;50714;49.208;5.364;2023-02-18T19:06:04;4.40;;;2.65;;
48026;SDS011;50714;49.208;5.364;2023-02-18T19:26:22;11.87;;;10.23;;
48026;SDS011;50714;49.208;5.364;2023-02-18T19:36:23;8.02;;;6.57;;
48026;SDS011;50714;49.208;5.364;2023-02-18T19:46:23;6.38;;;4.20;;
48026;SDS011;50714;49.208;5.364;2023-02-18T19:56:23;6.65;;;4.50;;
48026;SDS011;50714;49.208;5.364;2023-02-18T20:06:24;6.90;;;4.70;;
48026;SDS011;50714;49.208;5.364;2023-02-18T20:16:25;7.20;;;4.43;;
48026;SDS011;50714;49.208;5.364;2023-02-18T20:26:25;5.93;;;4.30;;
48026;SDS011;50714;49.208;5.364;2023-02-18T20:36:25;5.45;;;3.83;;
48026;SDS011;50714;49.208;5.364;2023-02-18T20:46:26;15.02;;;13.73;;
48026;SDS011;50714;49.208;5.364;2023-02-18T20:56:27;7.20;;;5.85;;
48026;SDS011;50714;49.208;5.364;2023-02-18T21:06:27;5.55;;;3.40;;
48026;SDS011;50714;49.208;5.364;2023-02-18T21:16:28;11.77;;;8.27;;
48026;SDS011;50714;49.208;5.364;2023-02-18T21:26:31;12.55;;;9.05;;
48026;SDS011;50714;49.208;5.364;2023-02-18T21:36:32;14.55;;;10.88;;
48026;SDS011;50714;49.208;5.364;2023-02-18T21:46:33;11.52;;;9.85;;
48026;SDS011;50714;49.208;5.364;2023-02-18T21:56:35;6.30;;;4.70;;
48026;SDS011;50714;49.208;5.364;2023-02-18T22:06:35;5.22;;;3.58;;
48026;SDS011;50714;49.208;5.364;2023-02-18T22:16:36;6.05;;;4.18;;
48026;SDS011;50714;49.208;5.364;2023-02-18T22:26:37;8.00;;;6.00;;
48026;SDS011;50714;49.208;5.364;2023-02-18T22:36:37;5.68;;;4.95;;
48026;SDS011;50714;49.208;5.364;2023-02-18T22:46:38;5.00;;;4.20;;
48026;SDS011;50714;49.208;5.364;2023-02-18T22:56:38;3.58;;;2.38;;
48026;SDS011;50714;49.208;5.364;2023-02-18T23:06:40;3.83;;;3.10;;
48026;SDS011;50714;49.208;5.364;2023-02-18T23:16:42;5.20;;;4.13;;
48026;SDS011;50714;49.208;5.364;2023-02-18T23:27:05;4.25;;;3.60;;
48026;SDS011;50714;49.208;5.364;2023-02-18T23:37:07;4.43;;;3.75;;
48026;SDS011;50714;49.208;5.364;2023-02-18T23:47:08;8.15;;;5.78;;
48026;SDS011;50714;49.208;5.364;2023-02-18T23:57:08;17.77;;;11.48;;
